Station Historical Data
 
Daily Summary for March 19, 2019 Units:  English    Metric   Both
« Previous Day
Next Day »
Daily Weekly Monthly Yearly Custom
  Current: High: Low: Average:
Temperature: 46.3 °F TemperatureF °F 24.3 °F 36.4 °F
Dew Point: 21.4 °F DewpointF °F 16.0 °F 21.7 °F
Humidity: 37% Humidity% 31% 57%
Wind Speed: 6.3mph WindSpeedMPHmph 0.0mph 2.5mph
Wind Gust: 10.4mph WindSpeedGustMPHmph - -
WindWest - - SW
Pressure: 30.36 in PressureIn in 30.34 in -
Precipitation: 0.00 in      
Historical Graphs
 
 
Tabular Data for March 19, 2019
Time Temperature Dew Point Pressure Wind Wind Speed Wind Gust Humidity Rainfall Rate (Hourly) solar Conditions
TemperatureF °F DewpointF °F PressureIn in Calm     Humidity% HourlyPrecipIn in SolarRadiationWatts/m^2 W/m2 Conditions
00:04 31.1 °F 24.4 °F 30.34 in West 4.0 mph 5.8 mph 76% 0.00 in 0.00 W/m2 CLR
00:09 31.3 °F 24.3 °F 30.34 in WSW 2.5 mph 3.5 mph 75% 0.00 in 0.00 W/m2 CLR
00:14 30.9 °F 24.2 °F 30.34 in WSW 3.9 mph 3.5 mph 76% 0.00 in 0.00 W/m2 CLR
00:19 30.5 °F 24.1 °F 30.34 in WSW 5.2 mph 8.1 mph 77% 0.00 in 0.00 W/m2 CLR
00:24 30.3 °F 24.3 °F 30.34 in WSW 4.2 mph 5.8 mph 78% 0.00 in 0.00 W/m2 CLR
00:29 30.6 °F 24.2 °F 30.34 in West 4.1 mph 5.8 mph 77% 0.00 in 0.00 W/m2 CLR
00:34 30.4 °F 24.4 °F 30.34 in WSW 3.2 mph 3.5 mph 78% 0.00 in 0.00 W/m2 CLR
00:39 30.3 °F 24.3 °F 30.34 in West 2.2 mph 3.5 mph 78% 0.00 in 0.00 W/m2 CLR
00:44 30.3 °F 24.0 °F 30.34 in West 2.0 mph 3.5 mph 77% 0.00 in 0.00 W/m2 CLR
00:49 30.5 °F 24.1 °F 30.34 in West 1.9 mph 2.3 mph 77% 0.00 in 0.00 W/m2 CLR
00:54 30.2 °F 23.9 °F 30.34 in WSW 2.9 mph 3.5 mph 77% 0.00 in 0.00 W/m2 CLR
00:59 30.1 °F 24.1 °F 30.34 in West 2.8 mph 3.5 mph 78% 0.00 in 0.00 W/m2 CLR
01:04 30.3 °F 24.0 °F 30.34 in West 2.0 mph 3.5 mph 77% 0.00 in 0.00 W/m2 CLR
01:09 30.6 °F 23.6 °F 30.34 in West 3.1 mph 3.5 mph 75% 0.00 in 0.00 W/m2 CLR
01:14 30.8 °F 23.8 °F 30.34 in West 4.1 mph 4.6 mph 75% 0.00 in 0.00 W/m2 CLR
01:19 30.5 °F 23.8 °F 30.34 in WSW 3.9 mph 5.8 mph 76% 0.00 in 0.00 W/m2 CLR
01:24 30.1 °F 23.8 °F 30.35 in West 4.2 mph 6.9 mph 77% 0.00 in 0.00 W/m2 CLR
01:29 30.0 °F 24.0 °F 30.35 in WSW 4.1 mph 3.5 mph 78% 0.00 in 0.00 W/m2 CLR
01:34 29.8 °F 23.8 °F 30.35 in West 3.5 mph 3.5 mph 78% 0.00 in 0.00 W/m2 CLR
01:39 29.5 °F 23.8 °F 30.35 in West 3.5 mph 5.8 mph 79% 0.00 in 0.00 W/m2 CLR
01:44 29.4 °F 24.0 °F 30.35 in West 2.9 mph 3.5 mph 80% 0.00 in 0.00 W/m2 CLR
01:49 29.4 °F 23.7 °F 30.35 in West 3.6 mph 3.5 mph 79% 0.00 in 0.00 W/m2 CLR
01:54 29.7 °F 24.0 °F 30.35 in WSW 4.1 mph 5.8 mph 79% 0.00 in 0.00 W/m2 CLR
01:59 30.0 °F 24.0 °F 30.35 in WSW 4.0 mph 3.5 mph 78% 0.00 in 0.00 W/m2 CLR
02:04 30.1 °F 23.8 °F 30.35 in WSW 4.8 mph 5.8 mph 77% 0.00 in 0.00 W/m2 CLR
02:09 30.0 °F 23.7 °F 30.35 in West 0.7 mph 2.3 mph 77% 0.00 in 0.00 W/m2 CLR
02:14 29.8 °F 23.5 °F 30.36 in Calm     77% 0.00 in 0.00 W/m2 CLR
02:19 29.3 °F 23.0 °F 30.36 in Calm     77% 0.00 in 0.00 W/m2 CLR
02:24 29.4 °F 23.4 °F 30.36 in Calm     78% 0.00 in 0.00 W/m2 CLR
02:29 30.0 °F 23.4 °F 30.36 in West 0.6 mph 3.5 mph 76% 0.00 in 0.00 W/m2 CLR
02:34 30.5 °F 22.9 °F 30.36 in NW 2.1 mph 3.5 mph 73% 0.00 in 0.00 W/m2 CLR
02:39 31.6 °F 22.6 °F 30.36 in WNW 4.7 mph 4.6 mph 69% 0.00 in 0.00 W/m2 CLR
02:44 32.7 °F 22.6 °F 30.36 in WNW 2.8 mph 3.5 mph 66% 0.00 in 0.00 W/m2 CLR
02:49 32.6 °F 22.1 °F 30.37 in NNW 1.8 mph 4.6 mph 65% 0.00 in 0.00 W/m2 CLR
02:54 32.6 °F 21.8 °F 30.36 in Calm   2.3 mph 64% 0.00 in 0.00 W/m2 CLR
02:59 33.1 °F 21.9 °F 30.36 in NNW 4.7 mph 3.5 mph 63% 0.00 in 0.00 W/m2 CLR
03:04 33.3 °F 21.7 °F 30.36 in WNW 0.3 mph 4.6 mph 62% 0.00 in 0.00 W/m2 CLR
03:09 33.4 °F 21.8 °F 30.36 in NW 3.4 mph 4.6 mph 62% 0.00 in 0.00 W/m2 CLR
03:14 33.0 °F 21.8 °F 30.36 in NW 3.9 mph 4.6 mph 63% 0.00 in 0.00 W/m2 CLR
03:19 32.5 °F 21.7 °F 30.36 in NW 3.2 mph 4.0 mph 64% 0.00 in 0.00 W/m2 CLR
03:24 32.3 °F 21.5 °F 30.36 in NW 2.3 mph 4.6 mph 64% 0.00 in 0.00 W/m2 CLR
03:29 32.1 °F 21.3 °F 30.36 in WNW 1.3 mph 3.5 mph 64% 0.00 in 0.00 W/m2 CLR
03:34 31.7 °F 21.3 °F 30.36 in WNW 1.9 mph 3.5 mph 65% 0.00 in 0.00 W/m2 CLR
03:39 31.3 °F 21.3 °F 30.36 in WNW 2.1 mph 3.5 mph 66% 0.00 in 0.00 W/m2 CLR
03:44 30.9 °F 21.2 °F 30.36 in WNW 2.3 mph 3.5 mph 67% 0.00 in 0.00 W/m2 CLR
03:49 30.9 °F 21.2 °F 30.36 in WNW 2.3 mph 3.5 mph 67% 0.00 in 0.00 W/m2 CLR
03:54 30.8 °F 21.1 °F 30.36 in WNW 1.5 mph 2.3 mph 67% 0.00 in 0.00 W/m2 CLR
03:59 30.6 °F 21.3 °F 30.36 in WNW 1.6 mph 2.3 mph 68% 0.00 in 0.00 W/m2 CLR
04:04 30.4 °F 21.4 °F 30.36 in WNW 2.0 mph 2.3 mph 69% 0.00 in 0.00 W/m2 CLR
04:09 30.3 °F 21.3 °F 30.36 in Calm   3.5 mph 69% 0.00 in 0.00 W/m2 CLR
04:14 30.1 °F 21.2 °F 30.36 in WNW 2.6 mph 3.5 mph 69% 0.00 in 0.00 W/m2 CLR
04:19 30.0 °F 21.1 °F 30.36 in WNW 2.1 mph 3.5 mph 69% 0.00 in 0.00 W/m2 CLR
04:24 30.5 °F 21.2 °F 30.36 in WNW 1.4 mph 1.2 mph 68% 0.00 in 0.00 W/m2 CLR
04:29 30.6 °F 20.9 °F 30.36 in Calm     67% 0.00 in 0.00 W/m2 CLR
04:34 30.7 °F 21.0 °F 30.36 in Calm     67% 0.00 in 0.00 W/m2 CLR
04:39 29.2 °F 20.3 °F 30.36 in Calm     69% 0.00 in 0.00 W/m2 CLR
04:44 28.1 °F 20.2 °F 30.36 in Calm     72% 0.00 in 0.00 W/m2 CLR
04:49 28.5 °F 20.6 °F 30.37 in Calm     72% 0.00 in 0.00 W/m2 CLR
04:54 29.4 °F 20.5 °F 30.37 in Calm     69% 0.00 in 0.00 W/m2 CLR
04:59 29.7 °F 20.4 °F 30.37 in Calm     68% 0.00 in 0.00 W/m2 CLR
05:04 29.8 °F 20.2 °F 30.37 in Calm     67% 0.00 in 0.00 W/m2 CLR
05:09 29.4 °F 19.8 °F 30.37 in Calm     67% 0.00 in 0.00 W/m2 CLR
05:14 28.9 °F 19.3 °F 30.38 in Calm     67% 0.00 in 0.00 W/m2 CLR
05:19 28.1 °F 19.2 °F 30.37 in Calm     69% 0.00 in 0.00 W/m2 CLR
05:24 26.7 °F 19.8 °F 30.37 in Calm     75% 0.00 in 0.00 W/m2 CLR
05:29 26.4 °F 19.9 °F 30.38 in Calm     76% 0.00 in 0.00 W/m2 CLR
05:34 27.2 °F 20.0 °F 30.38 in Calm     74% 0.00 in 0.00 W/m2 CLR
05:39 27.5 °F 19.7 °F 30.37 in Calm     72% 0.00 in 0.00 W/m2 CLR
05:44 27.4 °F 19.2 °F 30.38 in Calm     71% 0.00 in 0.00 W/m2 CLR
05:49 27.2 °F 19.0 °F 30.38 in Calm     71% 0.00 in 0.00 W/m2 CLR
05:54 27.2 °F 19.0 °F 30.38 in WNW 1.3 mph   71% 0.00 in 0.00 W/m2 CLR
05:59 26.5 °F 19.0 °F 30.38 in WNW 1.5 mph 2.3 mph 73% 0.00 in 0.00 W/m2 CLR
06:04 26.4 °F 18.9 °F 30.38 in WNW 1.7 mph 2.3 mph 73% 0.00 in 0.00 W/m2 CLR
06:09 26.9 °F 19.7 °F 30.38 in West 0.3 mph 3.5 mph 74% 0.00 in 0.00 W/m2 CLR
06:14 27.2 °F 19.7 °F 30.38 in West 1.4 mph   73% 0.00 in 0.00 W/m2 CLR
06:19 27.7 °F 19.8 °F 30.38 in West 2.6 mph 3.5 mph 72% 0.00 in 0.00 W/m2 CLR
06:24 27.4 °F 19.6 °F 30.38 in West 1.6 mph 3.5 mph 72% 0.00 in 0.00 W/m2 CLR
06:29 27.6 °F 19.4 °F 30.39 in West 1.4 mph 2.0 mph 71% 0.00 in 0.00 W/m2 CLR
06:34 27.5 °F 19.0 °F 30.39 in Calm   1.2 mph 70% 0.00 in 0.00 W/m2 CLR
06:39 26.3 °F 18.8 °F 30.39 in Calm     73% 0.00 in 0.00 W/m2 CLR
06:44 25.7 °F 19.2 °F 30.39 in Calm     76% 0.00 in 0.00 W/m2 CLR
06:49 25.3 °F 19.1 °F 30.39 in Calm     77% 0.00 in 0.00 W/m2 CLR
06:54 24.9 °F 18.7 °F 30.39 in Calm     77% 0.00 in 0.00 W/m2 CLR
06:59 24.3 °F 19.0 °F 30.39 in Calm     80% 0.00 in 0.00 W/m2 CLR
07:04 25.0 °F 19.4 °F 30.40 in Calm     79% 0.00 in 5.00 W/m2 CLR
07:09 25.1 °F 19.5 °F 30.40 in Calm     79% 0.00 in 11.00 W/m2 CLR
07:14 25.3 °F 19.7 °F 30.40 in Calm     79% 0.00 in 12.00 W/m2 CLR
07:19 25.8 °F 20.2 °F 30.41 in Calm     79% 0.00 in 18.00 W/m2 CLR
07:24 26.2 °F 20.0 °F 30.41 in Calm     77% 0.00 in 21.00 W/m2 CLR
07:29 26.3 °F 20.1 °F 30.41 in Calm     77% 0.00 in 26.00 W/m2 CLR
07:34 25.9 °F 20.0 °F 30.41 in Calm     78% 0.00 in 30.00 W/m2 CLR
07:39 26.5 °F 20.3 °F 30.41 in Calm     77% 0.00 in 40.00 W/m2 CLR
07:44 27.1 °F 20.2 °F 30.42 in Calm     75% 0.00 in 77.00 W/m2 CLR
07:49 26.8 °F 20.6 °F 30.43 in Calm     77% 0.00 in 118.00 W/m2 CLR
07:54 26.7 °F 21.1 °F 30.43 in Calm     79% 0.00 in 146.00 W/m2 CLR
07:59 27.5 °F 21.2 °F 30.43 in Calm     77% 0.00 in 176.00 W/m2 CLR
08:04 28.2 °F 21.3 °F 30.43 in Calm     75% 0.00 in 207.00 W/m2 CLR
08:09 28.8 °F 21.6 °F 30.43 in Calm     74% 0.00 in 239.00 W/m2 CLR
08:14 29.6 °F 21.7 °F 30.43 in Calm     72% 0.00 in 272.00 W/m2 CLR
08:19 30.2 °F 21.6 °F 30.43 in Calm     70% 0.00 in 306.00 W/m2 CLR
08:24 30.2 °F 23.2 °F 30.43 in WNW 1.6 mph 1.2 mph 75% 0.00 in 332.00 W/m2 CLR
08:29 30.6 °F 22.6 °F 30.44 in West 1.5 mph 2.3 mph 72% 0.00 in 364.00 W/m2 CLR
08:34 31.0 °F 23.4 °F 30.43 in WNW 1.2 mph 3.5 mph 73% 0.00 in 392.00 W/m2 CLR
08:39 31.6 °F 23.9 °F 30.44 in WSW 2.5 mph 3.5 mph 73% 0.00 in 418.00 W/m2 CLR
08:44 32.3 °F 24.3 °F 30.44 in WSW 3.9 mph 5.8 mph 72% 0.00 in 446.00 W/m2 CLR
08:49 32.8 °F 23.4 °F 30.44 in Calm     68% 0.00 in 471.00 W/m2 CLR
08:54 33.2 °F 24.5 °F 30.44 in Calm     70% 0.00 in 492.00 W/m2 CLR
08:59 33.9 °F 24.1 °F 30.44 in Calm     67% 0.00 in 519.00 W/m2 CLR
09:04 34.5 °F 24.7 °F 30.44 in Calm     67% 0.00 in 545.00 W/m2 CLR
09:09 35.2 °F 25.0 °F 30.44 in Calm     66% 0.00 in 570.00 W/m2 CLR
09:14 35.6 °F 23.9 °F 30.44 in Calm     62% 0.00 in 596.00 W/m2 CLR
09:19 36.1 °F 23.9 °F 30.44 in Calm     61% 0.00 in 619.00 W/m2 CLR
09:24 37.2 °F 25.4 °F 30.44 in WNW 1.7 mph 2.3 mph 62% 0.00 in 642.00 W/m2 CLR
09:29 37.3 °F 22.2 °F 30.44 in WNW 2.7 mph 3.5 mph 54% 0.00 in 666.00 W/m2 CLR
09:34 37.9 °F 23.2 °F 30.44 in ENE 2.6 mph 3.5 mph 55% 0.00 in 687.00 W/m2 CLR
09:39 38.3 °F 22.2 °F 30.44 in North 2.6 mph 3.5 mph 52% 0.00 in 714.00 W/m2 CLR
09:44 38.6 °F 22.5 °F 30.44 in WNW 0.4 mph 3.5 mph 52% 0.00 in 737.00 W/m2 CLR
09:49 39.0 °F 24.2 °F 30.44 in NNW 3.1 mph 3.5 mph 55% 0.00 in 761.00 W/m2 CLR
09:54 38.8 °F 23.1 °F 30.44 in NW 2.8 mph 3.5 mph 53% 0.00 in 784.00 W/m2 CLR
09:59 39.7 °F 25.3 °F 30.44 in North 2.4 mph 3.5 mph 56% 0.00 in 807.00 W/m2 CLR
10:04 39.7 °F 23.5 °F 30.44 in North 3.9 mph 3.5 mph 52% 0.00 in 824.00 W/m2 CLR
10:09 39.4 °F 23.7 °F 30.45 in NE 1.2 mph 2.3 mph 53% 0.00 in 847.00 W/m2 CLR
10:14 39.3 °F 24.0 °F 30.45 in ENE 4.5 mph 4.6 mph 54% 0.00 in 867.00 W/m2 CLR
10:19 39.4 °F 22.8 °F 30.45 in NE 4.2 mph 5.8 mph 51% 0.00 in 884.00 W/m2 CLR
10:24 39.7 °F 24.0 °F 30.45 in ENE 3.0 mph 5.8 mph 53% 0.00 in 905.00 W/m2 CLR
10:29 39.9 °F 24.6 °F 30.45 in ENE 4.1 mph 3.5 mph 54% 0.00 in 921.00 W/m2 CLR
10:34 39.7 °F 23.5 °F 30.45 in East 2.1 mph 3.5 mph 52% 0.00 in 942.00 W/m2 CLR
10:39 40.5 °F 24.7 °F 30.45 in ENE 2.1 mph 3.5 mph 53% 0.00 in 956.00 W/m2 CLR
10:44 40.5 °F 23.8 °F 30.45 in NNE 4.0 mph 3.5 mph 51% 0.00 in 974.00 W/m2 CLR
10:49 40.8 °F 25.0 °F 30.45 in North 2.3 mph 3.5 mph 53% 0.00 in 991.00 W/m2 CLR
10:54 41.0 °F 23.8 °F 30.45 in NNE 4.3 mph 6.9 mph 50% 0.00 in 1000.00 W/m2 CLR
10:59 40.3 °F 24.5 °F 30.45 in North 0.8 mph 1.2 mph 53% 0.00 in 998.00 W/m2 CLR
11:04 40.5 °F 23.3 °F 30.45 in NE 1.8 mph 3.5 mph 50% 0.00 in 1041.00 W/m2 CLR
11:09 40.5 °F 23.3 °F 30.45 in NNW 2.7 mph 5.8 mph 50% 0.00 in 1055.00 W/m2 CLR
11:14 41.0 °F 23.8 °F 30.45 in SW 1.0 mph 1.2 mph 50% 0.00 in 1065.00 W/m2 CLR
11:19 41.3 °F 23.1 °F 30.45 in NE 1.0 mph 3.5 mph 48% 0.00 in 1079.00 W/m2 CLR
11:24 41.8 °F 23.5 °F 30.45 in SE 2.2 mph 3.5 mph 48% 0.00 in 1092.00 W/m2 CLR
11:29 42.7 °F 25.3 °F 30.45 in East 5.2 mph 8.1 mph 50% 0.00 in 1100.00 W/m2 CLR
11:34 41.3 °F 22.6 °F 30.45 in ENE 1.3 mph 3.5 mph 47% 0.00 in 1114.00 W/m2 CLR
11:39 42.1 °F 22.8 °F 30.45 in NNW 2.9 mph 4.6 mph 46% 0.00 in 1129.00 W/m2 CLR
11:44 43.1 °F 25.2 °F 30.45 in NW 3.6 mph 3.5 mph 49% 0.00 in 1144.00 W/m2 CLR
11:49 43.5 °F 23.0 °F 30.45 in NNE 4.1 mph 6.9 mph 44% 0.00 in 1148.00 W/m2 CLR
11:54 43.0 °F 22.5 °F 30.44 in East 2.7 mph 1.2 mph 44% 0.00 in 1160.00 W/m2 CLR
11:59 43.2 °F 23.8 °F 30.44 in NE 5.0 mph 5.8 mph 46% 0.00 in 1183.00 W/m2 CLR
12:04 43.7 °F 24.2 °F 30.44 in ENE 2.6 mph 5.8 mph 46% 0.00 in 1188.00 W/m2 CLR
12:09 42.5 °F 20.4 °F 30.44 in South 0.2 mph 3.5 mph 41% 0.00 in 1192.00 W/m2 CLR
12:14 43.5 °F 23.0 °F 30.44 in SE 1.0 mph 3.5 mph 44% 0.00 in 1208.00 W/m2 CLR
12:19 44.0 °F 20.6 °F 30.44 in ESE 2.0 mph 3.5 mph 39% 0.00 in 1213.00 W/m2 CLR
12:24 44.0 °F 19.4 °F 30.44 in NE 2.4 mph 3.5 mph 37% 0.00 in 1215.00 W/m2 CLR
12:29 43.6 °F 21.4 °F 30.44 in SW 0.9 mph 2.3 mph 41% 0.00 in 1225.00 W/m2 CLR
12:34 44.1 °F 21.9 °F 30.44 in ENE 2.1 mph 4.6 mph 41% 0.00 in 1245.00 W/m2 CLR
12:39 44.7 °F 22.4 °F 30.44 in SW 3.4 mph 3.5 mph 41% 0.00 in 1223.00 W/m2 CLR
12:44 45.2 °F 25.1 °F 30.43 in WSW 5.6 mph 8.1 mph 45% 0.00 in 1246.00 W/m2 CLR
12:49 45.1 °F 23.9 °F 30.43 in NW 2.6 mph 3.5 mph 43% 0.00 in 1259.00 W/m2 CLR
12:54 45.9 °F 23.5 °F 30.43 in WSW 5.6 mph 8.1 mph 41% 0.00 in 1297.00 W/m2 CLR
12:59 44.9 °F 20.2 °F 30.43 in SSW 3.0 mph 3.5 mph 37% 0.00 in 1339.00 W/m2 CLR
13:04 44.3 °F 19.6 °F 30.43 in NE 1.7 mph 3.5 mph 37% 0.00 in 1322.00 W/m2 CLR
13:09 45.0 °F 20.9 °F 30.43 in NNE 3.2 mph 3.5 mph 38% 0.00 in 1310.00 W/m2 CLR
13:14 45.0 °F 20.3 °F 30.43 in NNW 1.3 mph 3.5 mph 37% 0.00 in 1361.00 W/m2 CLR
13:19 46.5 °F 22.2 °F 30.43 in North 2.9 mph 3.5 mph 38% 0.00 in 487.00 W/m2 CLR
13:24 45.2 °F 19.1 °F 30.43 in North 2.0 mph 3.5 mph 35% 0.00 in 396.00 W/m2 CLR
13:29 44.5 °F 21.6 °F 30.43 in NW 3.2 mph 3.5 mph 40% 0.00 in 573.00 W/m2 CLR
13:34 46.4 °F 20.9 °F 30.43 in NNE 9.5 mph 11.5 mph 36% 0.00 in 1433.00 W/m2 CLR
13:39 44.4 °F 17.7 °F 30.42 in NNE 3.7 mph 3.5 mph 34% 0.00 in 290.00 W/m2 CLR
13:44 44.3 °F 19.0 °F 30.42 in NE 2.8 mph 3.5 mph 36% 0.00 in 371.00 W/m2 CLR
13:49 44.6 °F 21.1 °F 30.42 in WNW 3.4 mph 3.5 mph 39% 0.00 in 315.00 W/m2 CLR
13:54 44.2 °F 19.5 °F 30.42 in WNW 1.1 mph 2.3 mph 37% 0.00 in 329.00 W/m2 CLR
13:59 44.5 °F 19.2 °F 30.41 in NNE 4.5 mph 5.8 mph 36% 0.00 in 436.00 W/m2 CLR
14:04 46.3 °F 20.1 °F 30.41 in NNE 3.8 mph 8.1 mph 35% 0.00 in 1401.00 W/m2 CLR
14:09 46.0 °F 19.8 °F 30.41 in NNW 1.6 mph 2.3 mph 35% 0.00 in 1392.00 W/m2 CLR
14:14 46.7 °F 21.1 °F 30.40 in West 0.8 mph 5.8 mph 36% 0.00 in 1317.00 W/m2 CLR
14:19 46.2 °F 20.0 °F 30.40 in WNW 3.7 mph 3.5 mph 35% 0.00 in 418.00 W/m2 CLR
14:24 45.5 °F 18.7 °F 30.40 in NNE 4.4 mph 8.1 mph 34% 0.00 in 355.00 W/m2 CLR
14:29 46.0 °F 18.5 °F 30.40 in West 3.5 mph 5.8 mph 33% 0.00 in 364.00 W/m2 CLR
14:34 45.3 °F 17.1 °F 30.40 in North 2.0 mph 3.5 mph 32% 0.00 in 418.00 W/m2 CLR
14:39 44.8 °F 16.0 °F 30.40 in NE 0.9 mph 2.3 mph 31% 0.00 in 394.00 W/m2 CLR
14:44 45.3 °F 18.5 °F 30.39 in East 3.1 mph 4.6 mph 34% 0.00 in 469.00 W/m2 CLR
14:49 46.4 °F 18.8 °F 30.39 in East 3.6 mph 3.5 mph 33% 0.00 in 378.00 W/m2 CLR
14:54 46.1 °F 19.2 °F 30.39 in NE 0.2 mph 1.2 mph 34% 0.00 in 397.00 W/m2 CLR
14:59 45.9 °F 17.7 °F 30.39 in SSW 4.0 mph 5.8 mph 32% 0.00 in 777.00 W/m2 CLR
15:04 46.6 °F 19.0 °F 30.39 in East 2.3 mph 2.3 mph 33% 0.00 in 455.00 W/m2 CLR
15:09 45.9 °F 18.4 °F 30.39 in SSW 1.7 mph 3.5 mph 33% 0.00 in 374.00 W/m2 CLR
15:14 46.3 °F 20.1 °F 30.39 in NNW 2.6 mph 6.9 mph 35% 0.00 in 548.00 W/m2 CLR
15:19 46.3 °F 20.8 °F 30.39 in NNW 1.5 mph 3.5 mph 36% 0.00 in 417.00 W/m2 CLR
15:24 47.0 °F 21.4 °F 30.39 in NNW 1.4 mph 3.5 mph 36% 0.00 in 1273.00 W/m2 CLR
15:29 48.4 °F 23.3 °F 30.38 in WSW 8.1 mph 11.5 mph 37% 0.00 in 1220.00 W/m2 CLR
15:34 48.4 °F 24.6 °F 30.38 in NW 7.3 mph 10.4 mph 39% 0.00 in 1160.00 W/m2 CLR
15:39 48.6 °F 22.8 °F 30.38 in West 11.1 mph 15.0 mph 36% 0.00 in 1056.00 W/m2 CLR
15:44 47.7 °F 22.0 °F 30.39 in West 6.6 mph 10.4 mph 36% 0.00 in 923.00 W/m2 CLR
15:49 47.9 °F 22.8 °F 30.38 in WSW 5.5 mph 11.5 mph 37% 0.00 in 1046.00 W/m2 CLR
15:54 47.9 °F 24.1 °F 30.38 in NW 10.2 mph 11.5 mph 39% 0.00 in 946.00 W/m2 CLR
15:59 46.8 °F 22.5 °F 30.39 in WSW 7.1 mph 9.2 mph 38% 0.00 in 926.00 W/m2 CLR
16:04 47.2 °F 21.6 °F 30.39 in South 3.6 mph 5.8 mph 36% 0.00 in 940.00 W/m2 CLR
16:09 47.8 °F 22.1 °F 30.38 in WNW 2.9 mph 3.5 mph 36% 0.00 in 904.00 W/m2 CLR
16:14 47.9 °F 22.8 °F 30.38 in WSW 10.2 mph 11.5 mph 37% 0.00 in 835.00 W/m2 CLR
16:19 48.1 °F 23.0 °F 30.38 in WSW 4.5 mph 9.2 mph 37% 0.00 in 745.00 W/m2 CLR
16:24 48.2 °F 21.8 °F 30.38 in West 6.0 mph 10.4 mph 35% 0.00 in 684.00 W/m2 CLR
16:29 48.0 °F 22.3 °F 30.38 in WNW 9.2 mph 11.5 mph 36% 0.00 in 605.00 W/m2 CLR
16:34 47.8 °F 23.4 °F 30.38 in WSW 6.9 mph 9.2 mph 38% 0.00 in 543.00 W/m2 CLR
16:39 47.4 °F 21.7 °F 30.38 in West 7.9 mph 12.7 mph 36% 0.00 in 446.00 W/m2 CLR
16:44 47.0 °F 22.0 °F 30.37 in WNW 5.0 mph 10.4 mph 37% 0.00 in 98.00 W/m2 CLR
16:49 46.6 °F 21.7 °F 30.37 in WSW 8.8 mph 12.7 mph 37% 0.00 in 520.00 W/m2 CLR
16:54 46.5 °F 19.6 °F 30.37 in WSW 2.5 mph 3.5 mph 34% 0.00 in 552.00 W/m2 CLR
16:59 46.3 °F 18.7 °F 30.37 in Calm   3.5 mph 33% 0.00 in 223.00 W/m2 CLR
17:04 47.0 °F 20.0 °F 30.37 in SSE 0.4 mph 2.3 mph 34% 0.00 in 431.00 W/m2 CLR
17:09 47.7 °F 20.7 °F 30.37 in SSW 6.0 mph 6.9 mph 34% 0.00 in 582.00 W/m2 CLR
17:14 47.4 °F 21.1 °F 30.37 in SW 2.9 mph 4.6 mph 35% 0.00 in 559.00 W/m2 CLR
17:19 47.7 °F 23.9 °F 30.36 in SW 3.4 mph 3.5 mph 39% 0.00 in 550.00 W/m2 CLR
17:24 47.9 °F 24.1 °F 30.36 in WSW 7.6 mph 8.1 mph 39% 0.00 in 476.00 W/m2 CLR
17:29 47.4 °F 21.7 °F 30.36 in WSW 6.1 mph 10.4 mph 36% 0.00 in 422.00 W/m2 CLR
17:34 47.1 °F 21.5 °F 30.36 in WSW 8.2 mph 12.7 mph 36% 0.00 in 413.00 W/m2 CLR
17:39 47.2 °F 20.9 °F 30.36 in NW 3.6 mph 8.1 mph 35% 0.00 in 294.00 W/m2 CLR
17:44 46.3 °F 21.4 °F 30.36 in West 6.3 mph 10.4 mph 37% 0.00 in 86.00 W/m2 CLR
East Vincent, PA, USA
Compliments of Weather Underground - 3 mb